sensor_id;sensor_type;location;lat;lon;timestamp;pressure;altitude;pressure_sealevel;temperature;humidity
72308;BME280;60257;42.638;23.376;2024-02-23T00:01:50;94354.28;;;5.09;73.30
72308;BME280;60257;42.638;23.376;2024-02-23T00:03:50;94357.63;;;5.06;73.42
72308;BME280;60257;42.638;23.376;2024-02-23T00:05:51;94351.38;;;4.97;72.62
72308;BME280;60257;42.638;23.376;2024-02-23T00:07:51;94354.44;;;5.04;72.76
72308;BME280;60257;42.638;23.376;2024-02-23T00:09:51;94359.06;;;5.03;72.80
72308;BME280;60257;42.638;23.376;2024-02-23T00:11:52;94356.81;;;5.06;72.85
72308;BME280;60257;42.638;23.376;2024-02-23T00:13:52;94359.72;;;5.09;72.42
72308;BME280;60257;42.638;23.376;2024-02-23T00:15:52;94354.59;;;4.99;72.91
72308;BME280;60257;42.638;23.376;2024-02-23T00:17:53;94361.94;;;4.98;73.25
72308;BME280;60257;42.638;23.376;2024-02-23T00:19:53;94357.47;;;4.94;73.28
72308;BME280;60257;42.638;23.376;2024-02-23T00:21:54;94361.00;;;4.94;73.55
72308;BME280;60257;42.638;23.376;2024-02-23T00:23:54;94365.94;;;4.92;73.31
72308;BME280;60257;42.638;23.376;2024-02-23T00:25:55;94358.09;;;4.91;73.07
72308;BME280;60257;42.638;23.376;2024-02-23T00:27:55;94357.78;;;4.92;73.08
72308;BME280;60257;42.638;23.376;2024-02-23T00:29:56;94356.19;;;4.91;72.69
72308;BME280;60257;42.638;23.376;2024-02-23T00:31:56;94358.59;;;4.93;72.68
72308;BME280;60257;42.638;23.376;2024-02-23T00:33:56;94350.44;;;4.93;72.81
72308;BME280;60257;42.638;23.376;2024-02-23T00:35:57;94349.47;;;4.89;72.70
72308;BME280;60257;42.638;23.376;2024-02-23T00:37:57;94353.78;;;4.90;72.71
72308;BME280;60257;42.638;23.376;2024-02-23T00:39:57;94356.69;;;4.93;72.51
72308;BME280;60257;42.638;23.376;2024-02-23T00:41:58;94353.66;;;4.95;72.63
72308;BME280;60257;42.638;23.376;2024-02-23T00:43:59;94339.41;;;4.89;72.35
72308;BME280;60257;42.638;23.376;2024-02-23T00:45:59;94334.44;;;4.83;72.93
72308;BME280;60257;42.638;23.376;2024-02-23T00:47:59;94328.22;;;4.82;72.80
72308;BME280;60257;42.638;23.376;2024-02-23T00:50:00;94344.69;;;4.86;72.73
72308;BME280;60257;42.638;23.376;2024-02-23T00:52:00;94340.38;;;4.85;73.36
72308;BME280;60257;42.638;23.376;2024-02-23T00:54:00;94336.34;;;4.82;73.81
72308;BME280;60257;42.638;23.376;2024-02-23T00:56:01;94322.63;;;4.79;72.88
72308;BME280;60257;42.638;23.376;2024-02-23T00:58:01;94316.72;;;4.77;73.09
72308;BME280;60257;42.638;23.376;2024-02-23T01:00:04;94328.19;;;4.74;73.50
72308;BME280;60257;42.638;23.376;2024-02-23T01:02:05;94332.38;;;4.80;73.11
72308;BME280;60257;42.638;23.376;2024-02-23T01:04:05;94325.34;;;4.79;73.17
72308;BME280;60257;42.638;23.376;2024-02-23T01:06:06;94327.88;;;4.75;73.71
72308;BME280;60257;42.638;23.376;2024-02-23T01:08:06;94333.00;;;4.77;73.40
72308;BME280;60257;42.638;23.376;2024-02-23T01:10:07;94325.34;;;4.79;73.19
72308;BME280;60257;42.638;23.376;2024-02-23T01:12:07;94319.41;;;4.68;73.43
72308;BME280;60257;42.638;23.376;2024-02-23T01:14:08;94321.19;;;4.64;73.43
72308;BME280;60257;42.638;23.376;2024-02-23T01:16:08;94318.59;;;4.59;73.72
72308;BME280;60257;42.638;23.376;2024-02-23T01:18:08;94316.53;;;4.56;73.40
72308;BME280;60257;42.638;23.376;2024-02-23T01:20:09;94317.47;;;4.60;73.52
72308;BME280;60257;42.638;23.376;2024-02-23T01:22:10;94327.06;;;4.66;73.27
72308;BME280;60257;42.638;23.376;2024-02-23T01:24:10;94322.75;;;4.65;73.99
72308;BME280;60257;42.638;23.376;2024-02-23T01:26:10;94326.75;;;4.68;74.09
72308;BME280;60257;42.638;23.376;2024-02-23T01:28:11;94324.34;;;4.66;74.07
72308;BME280;60257;42.638;23.376;2024-02-23T01:30:11;94322.94;;;4.69;73.64
72308;BME280;60257;42.638;23.376;2024-02-23T01:32:12;94315.91;;;4.68;73.57
72308;BME280;60257;42.638;23.376;2024-02-23T01:34:12;94310.63;;;4.71;73.19
72308;BME280;60257;42.638;23.376;2024-02-23T01:36:13;94313.81;;;4.73;72.90
72308;BME280;60257;42.638;23.376;2024-02-23T01:38:13;94302.63;;;4.75;72.67
72308;BME280;60257;42.638;23.376;2024-02-23T01:40:19;94285.41;;;4.71;72.96
72308;BME280;60257;42.638;23.376;2024-02-23T01:42:20;94296.56;;;4.69;72.96
72308;BME280;60257;42.638;23.376;2024-02-23T01:44:20;94294.81;;;4.73;73.04
72308;BME280;60257;42.638;23.376;2024-02-23T01:46:21;94299.91;;;4.75;73.24
72308;BME280;60257;42.638;23.376;2024-02-23T01:48:22;94312.25;;;4.72;74.09
72308;BME280;60257;42.638;23.376;2024-02-23T01:50:23;94310.16;;;4.69;74.00
72308;BME280;60257;42.638;23.376;2024-02-23T01:52:23;94293.22;;;4.72;74.03
72308;BME280;60257;42.638;23.376;2024-02-23T01:54:24;94274.53;;;4.71;73.28
72308;BME280;60257;42.638;23.376;2024-02-23T01:56:25;94285.72;;;4.69;73.97
72308;BME280;60257;42.638;23.376;2024-02-23T01:58:28;94288.56;;;4.73;73.64
72308;BME280;60257;42.638;23.376;2024-02-23T02:00:29;94293.53;;;4.71;72.90
72308;BME280;60257;42.638;23.376;2024-02-23T02:02:30;94283.63;;;4.75;72.59
72308;BME280;60257;42.638;23.376;2024-02-23T02:04:30;94270.03;;;4.75;72.68
72308;BME280;60257;42.638;23.376;2024-02-23T02:06:31;94262.06;;;4.78;72.59
72308;BME280;60257;42.638;23.376;2024-02-23T02:08:33;94253.75;;;4.66;72.61
72308;BME280;60257;42.638;23.376;2024-02-23T02:10:33;94259.84;;;4.72;72.25
72308;BME280;60257;42.638;23.376;2024-02-23T02:12:34;94276.44;;;4.79;72.73
72308;BME280;60257;42.638;23.376;2024-02-23T02:14:35;94273.06;;;4.82;72.35
72308;BME280;60257;42.638;23.376;2024-02-23T02:16:35;94278.38;;;4.87;72.34
72308;BME280;60257;42.638;23.376;2024-02-23T02:18:36;94259.97;;;4.75;72.13
72308;BME280;60257;42.638;23.376;2024-02-23T02:20:37;94275.78;;;4.82;72.03
72308;BME280;60257;42.638;23.376;2024-02-23T02:22:40;94274.69;;;4.83;72.11
72308;BME280;60257;42.638;23.376;2024-02-23T02:24:41;94262.53;;;4.80;72.05
72308;BME280;60257;42.638;23.376;2024-02-23T02:26:43;94271.47;;;4.81;72.36
72308;BME280;60257;42.638;23.376;2024-02-23T02:28:45;94267.97;;;4.80;72.30
72308;BME280;60257;42.638;23.376;2024-02-23T02:30:48;94271.66;;;4.84;72.14
72308;BME280;60257;42.638;23.376;2024-02-23T02:32:48;94268.31;;;4.79;72.23
72308;BME280;60257;42.638;23.376;2024-02-23T02:34:48;94264.47;;;4.71;72.17
72308;BME280;60257;42.638;23.376;2024-02-23T02:36:49;94284.75;;;4.74;72.53
72308;BME280;60257;42.638;23.376;2024-02-23T02:38:51;94284.91;;;4.77;72.49
72308;BME280;60257;42.638;23.376;2024-02-23T02:40:51;94288.56;;;4.73;72.43
72308;BME280;60257;42.638;23.376;2024-02-23T02:42:52;94271.63;;;4.67;72.52
72308;BME280;60257;42.638;23.376;2024-02-23T02:44:52;94284.28;;;4.72;72.77
72308;BME280;60257;42.638;23.376;2024-02-23T02:46:52;94279.47;;;4.69;72.78
72308;BME280;60257;42.638;23.376;2024-02-23T02:48:53;94286.03;;;4.68;73.35
72308;BME280;60257;42.638;23.376;2024-02-23T02:50:53;94283.28;;;4.59;73.60
72308;BME280;60257;42.638;23.376;2024-02-23T02:52:53;94278.84;;;4.63;73.43
72308;BME280;60257;42.638;23.376;2024-02-23T02:54:54;94269.09;;;4.62;73.03
72308;BME280;60257;42.638;23.376;2024-02-23T02:56:54;94268.91;;;4.50;73.65
72308;BME280;60257;42.638;23.376;2024-02-23T02:58:55;94271.94;;;4.40;74.29
72308;BME280;60257;42.638;23.376;2024-02-23T03:00:56;94283.13;;;4.47;74.22
72308;BME280;60257;42.638;23.376;2024-02-23T03:02:56;94284.09;;;4.51;74.24
72308;BME280;60257;42.638;23.376;2024-02-23T03:04:56;94283.28;;;4.50;74.42
72308;BME280;60257;42.638;23.376;2024-02-23T03:06:57;94280.72;;;4.45;74.17
72308;BME280;60257;42.638;23.376;2024-02-23T03:08:57;94282.81;;;4.40;74.30
72308;BME280;60257;42.638;23.376;2024-02-23T03:10:57;94283.63;;;4.49;74.13
72308;BME280;60257;42.638;23.376;2024-02-23T03:12:58;94284.09;;;4.51;74.11
72308;BME280;60257;42.638;23.376;2024-02-23T03:14:58;94291.28;;;4.55;73.91
72308;BME280;60257;42.638;23.376;2024-02-23T03:16:59;94289.38;;;4.56;73.93
72308;BME280;60257;42.638;23.376;2024-02-23T03:18:59;94285.53;;;4.57;73.96
72308;BME280;60257;42.638;23.376;2024-02-23T03:21:00;94291.09;;;4.43;74.45
72308;BME280;60257;42.638;23.376;2024-02-23T03:23:00;94283.75;;;4.35;75.05
72308;BME280;60257;42.638;23.376;2024-02-23T03:25:04;94282.31;;;4.38;74.97
72308;BME280;60257;42.638;23.376;2024-02-23T03:27:08;94267.63;;;4.39;74.34
72308;BME280;60257;42.638;23.376;2024-02-23T03:29:10;94284.75;;;4.56;74.39
72308;BME280;60257;42.638;23.376;2024-02-23T03:31:10;94279.78;;;4.58;74.24
72308;BME280;60257;42.638;23.376;2024-02-23T03:33:11;94258.53;;;4.52;74.10
72308;BME280;60257;42.638;23.376;2024-02-23T03:35:11;94274.66;;;4.57;74.17
72308;BME280;60257;42.638;23.376;2024-02-23T03:37:11;94263.03;;;4.48;74.26
72308;BME280;60257;42.638;23.376;2024-02-23T03:39:12;94286.00;;;4.59;74.44
72308;BME280;60257;42.638;23.376;2024-02-23T03:41:13;94275.31;;;4.45;74.47
72308;BME280;60257;42.638;23.376;2024-02-23T03:43:13;94291.75;;;4.57;74.42
72308;BME280;60257;42.638;23.376;2024-02-23T03:45:13;94295.28;;;4.58;74.51
72308;BME280;60257;42.638;23.376;2024-02-23T03:47:14;94291.28;;;4.55;74.70
72308;BME280;60257;42.638;23.376;2024-02-23T03:49:14;94297.53;;;4.56;74.76
72308;BME280;60257;42.638;23.376;2024-02-23T03:51:14;94295.13;;;4.54;75.02
72308;BME280;60257;42.638;23.376;2024-02-23T03:53:15;94295.13;;;4.54;74.89
72308;BME280;60257;42.638;23.376;2024-02-23T03:55:16;94295.59;;;4.48;75.00
72308;BME280;60257;42.638;23.376;2024-02-23T03:57:16;94297.81;;;4.46;75.17
72308;BME280;60257;42.638;23.376;2024-02-23T03:59:17;94288.69;;;4.42;75.50
72308;BME280;60257;42.638;23.376;2024-02-23T04:01:17;94292.41;;;4.46;75.71
72308;BME280;60257;42.638;23.376;2024-02-23T04:03:17;94294.13;;;4.42;75.66
72308;BME280;60257;42.638;23.376;2024-02-23T04:05:18;94272.09;;;4.35;75.60
72308;BME280;60257;42.638;23.376;2024-02-23T04:07:19;94286.47;;;4.44;75.78
72308;BME280;60257;42.638;23.376;2024-02-23T04:09:19;94287.91;;;4.50;75.50
72308;BME280;60257;42.638;23.376;2024-02-23T04:11:21;94290.31;;;4.51;75.63
72308;BME280;60257;42.638;23.376;2024-02-23T04:13:21;94306.13;;;4.49;75.71
72308;BME280;60257;42.638;23.376;2024-02-23T04:15:22;94302.47;;;4.45;75.88
72308;BME280;60257;42.638;23.376;2024-02-23T04:17:22;94304.38;;;4.45;76.23
72308;BME280;60257;42.638;23.376;2024-02-23T04:19:23;94309.50;;;4.46;76.03
72308;BME280;60257;42.638;23.376;2024-02-23T04:21:24;94285.38;;;4.45;75.86
72308;BME280;60257;42.638;23.376;2024-02-23T04:23:24;94290.44;;;4.20;76.93
72308;BME280;60257;42.638;23.376;2024-02-23T04:25:24;94278.63;;;4.25;76.72
72308;BME280;60257;42.638;23.376;2024-02-23T04:27:25;94299.56;;;4.33;76.62
72308;BME280;60257;42.638;23.376;2024-02-23T04:29:25;94295.56;;;4.31;76.20
72308;BME280;60257;42.638;23.376;2024-02-23T04:31:25;94292.69;;;4.36;76.24
72308;BME280;60257;42.638;23.376;2024-02-23T04:33:26;94298.13;;;4.36;76.20
72308;BME280;60257;42.638;23.376;2024-02-23T04:35:26;94299.88;;;4.32;76.35
72308;BME280;60257;42.638;23.376;2024-02-23T04:37:26;94295.88;;;4.29;76.55
72308;BME280;60257;42.638;23.376;2024-02-23T04:39:27;94295.22;;;4.23;76.40
72308;BME280;60257;42.638;23.376;2024-02-23T04:41:27;94313.44;;;4.23;76.60
72308;BME280;60257;42.638;23.376;2024-02-23T04:43:28;94304.00;;;4.20;76.67
72308;BME280;60257;42.638;23.376;2024-02-23T04:45:28;94300.47;;;4.20;77.03
72308;BME280;60257;42.638;23.376;2024-02-23T04:47:28;94303.50;;;4.18;76.31
72308;BME280;60257;42.638;23.376;2024-02-23T04:49:29;94313.88;;;4.08;77.04
72308;BME280;60257;42.638;23.376;2024-02-23T04:51:29;94307.47;;;4.12;77.08
72308;BME280;60257;42.638;23.376;2024-02-23T04:53:30;94297.91;;;4.06;76.85
72308;BME280;60257;42.638;23.376;2024-02-23T04:55:30;94310.16;;;4.04;77.00
72308;BME280;60257;42.638;23.376;2024-02-23T04:57:31;94308.72;;;3.98;77.41
72308;BME280;60257;42.638;23.376;2024-02-23T04:59:32;94305.69;;;3.99;77.15
72308;BME280;60257;42.638;23.376;2024-02-23T05:01:36;94300.19;;;3.82;78.15
72308;BME280;60257;42.638;23.376;2024-02-23T05:03:37;94304.72;;;3.86;78.02
72308;BME280;60257;42.638;23.376;2024-02-23T05:05:37;94319.22;;;3.91;77.61
72308;BME280;60257;42.638;23.376;2024-02-23T05:07:38;94318.28;;;3.86;77.76
72308;BME280;60257;42.638;23.376;2024-02-23T05:09:38;94313.94;;;3.85;77.97
72308;BME280;60257;42.638;23.376;2024-02-23T05:11:40;94313.75;;;3.82;78.10
72308;BME280;60257;42.638;23.376;2024-02-23T05:13:41;94299.13;;;3.92;76.66
72308;BME280;60257;42.638;23.376;2024-02-23T05:15:42;94296.56;;;3.95;76.22
72308;BME280;60257;42.638;23.376;2024-02-23T05:17:42;94297.09;;;4.06;75.57
72308;BME280;60257;42.638;23.376;2024-02-23T05:19:42;94325.88;;;4.15;75.61
72308;BME280;60257;42.638;23.376;2024-02-23T05:21:43;94340.88;;;4.21;75.45
72308;BME280;60257;42.638;23.376;2024-02-23T05:23:43;94339.47;;;4.24;75.65
72308;BME280;60257;42.638;23.376;2024-02-23T05:25:44;94328.28;;;4.25;75.62
72308;BME280;60257;42.638;23.376;2024-02-23T05:27:44;94313.25;;;4.19;75.55
72308;BME280;60257;42.638;23.376;2024-02-23T05:29:44;94332.28;;;4.28;75.23
72308;BME280;60257;42.638;23.376;2024-02-23T05:33:45;94336.59;;;4.29;75.16
72308;BME280;60257;42.638;23.376;2024-02-23T05:35:46;94317.59;;;4.29;75.13
72308;BME280;60257;42.638;23.376;2024-02-23T05:37:48;94342.63;;;4.26;75.60
72308;BME280;60257;42.638;23.376;2024-02-23T05:39:50;94333.72;;;4.25;75.67
72308;BME280;60257;42.638;23.376;2024-02-23T05:41:50;94348.22;;;4.21;75.57
72308;BME280;60257;42.638;23.376;2024-02-23T05:43:50;94347.13;;;4.22;75.74
72308;BME280;60257;42.638;23.376;2024-02-23T05:45:51;94333.03;;;4.20;75.69
72308;BME280;60257;42.638;23.376;2024-02-23T05:47:51;94330.63;;;4.18;75.57
72308;BME280;60257;42.638;23.376;2024-02-23T05:49:52;94345.69;;;4.24;75.38
72308;BME280;60257;42.638;23.376;2024-02-23T05:51:52;94347.44;;;4.29;75.43
72308;BME280;60257;42.638;23.376;2024-02-23T05:53:52;94349.06;;;4.30;75.51
72308;BME280;60257;42.638;23.376;2024-02-23T05:55:53;94352.25;;;4.32;75.74
72308;BME280;60257;42.638;23.376;2024-02-23T05:57:53;94355.81;;;4.41;75.50
72308;BME280;60257;42.638;23.376;2024-02-23T05:59:54;94346.50;;;4.42;75.46
72308;BME280;60257;42.638;23.376;2024-02-23T06:01:55;94348.13;;;4.43;75.00
72308;BME280;60257;42.638;23.376;2024-02-23T06:03:59;94341.41;;;4.49;74.47
72308;BME280;60257;42.638;23.376;2024-02-23T06:05:59;94348.97;;;4.61;74.08
72308;BME280;60257;42.638;23.376;2024-02-23T06:07:59;94352.00;;;4.68;74.18
72308;BME280;60257;42.638;23.376;2024-02-23T06:10:01;94342.25;;;4.67;74.02
72308;BME280;60257;42.638;23.376;2024-02-23T06:12:02;94362.25;;;4.80;74.17
72308;BME280;60257;42.638;23.376;2024-02-23T06:14:03;94361.31;;;4.84;73.63
72308;BME280;60257;42.638;23.376;2024-02-23T06:16:04;94358.41;;;4.89;73.43
72308;BME280;60257;42.638;23.376;2024-02-23T06:18:05;94367.22;;;4.95;73.23
72308;BME280;60257;42.638;23.376;2024-02-23T06:20:06;94368.97;;;4.99;73.28
72308;BME280;60257;42.638;23.376;2024-02-23T06:22:07;94371.88;;;5.03;72.99
72308;BME280;60257;42.638;23.376;2024-02-23T06:24:10;94370.59;;;5.09;72.52
72308;BME280;60257;42.638;23.376;2024-02-23T06:26:10;94368.34;;;5.11;72.23
72308;BME280;60257;42.638;23.376;2024-02-23T06:28:11;94381.13;;;5.19;72.25
72308;BME280;60257;42.638;23.376;2024-02-23T06:30:11;94372.81;;;5.24;72.05
72308;BME280;60257;42.638;23.376;2024-02-23T06:32:12;94370.44;;;5.31;72.30
72308;BME280;60257;42.638;23.376;2024-02-23T06:34:12;94375.69;;;5.36;72.20
72308;BME280;60257;42.638;23.376;2024-02-23T06:36:12;94372.16;;;5.45;71.54
72308;BME280;60257;42.638;23.376;2024-02-23T06:38:13;94373.59;;;5.51;71.34
72308;BME280;60257;42.638;23.376;2024-02-23T06:40:13;94368.13;;;5.59;71.10
72308;BME280;60257;42.638;23.376;2024-02-23T06:42:14;94376.78;;;5.70;70.41
72308;BME280;60257;42.638;23.376;2024-02-23T06:44:14;94362.06;;;5.71;70.34
72308;BME280;60257;42.638;23.376;2024-02-23T06:46:15;94374.34;;;5.86;70.11
72308;BME280;60257;42.638;23.376;2024-02-23T06:48:15;94381.22;;;5.92;70.11
72308;BME280;60257;42.638;23.376;2024-02-23T06:50:15;94386.16;;;5.98;69.99
72308;BME280;60257;42.638;23.376;2024-02-23T06:52:16;94379.91;;;6.06;69.56
72308;BME280;60257;42.638;23.376;2024-02-23T06:54:16;94360.03;;;6.14;69.12
72308;BME280;60257;42.638;23.376;2024-02-23T06:56:17;94363.03;;;6.22;68.51
72308;BME280;60257;42.638;23.376;2024-02-23T06:58:18;94355.47;;;6.27;68.40
72308;BME280;60257;42.638;23.376;2024-02-23T07:00:19;94375.97;;;6.33;68.27
72308;BME280;60257;42.638;23.376;2024-02-23T07:02:20;94386.47;;;6.43;68.87
72308;BME280;60257;42.638;23.376;2024-02-23T07:04:20;94366.44;;;6.48;68.28
72308;BME280;60257;42.638;23.376;2024-02-23T07:06:20;94380.66;;;6.53;67.67
72308;BME280;60257;42.638;23.376;2024-02-23T07:08:21;94378.44;;;6.55;67.47
72308;BME280;60257;42.638;23.376;2024-02-23T07:10:21;94373.75;;;6.65;67.13
72308;BME280;60257;42.638;23.376;2024-02-23T07:12:22;94381.72;;;6.70;67.07
72308;BME280;60257;42.638;23.376;2024-02-23T07:14:23;94373.81;;;6.77;67.12
72308;BME280;60257;42.638;23.376;2024-02-23T07:16:23;94377.94;;;6.83;67.15
72308;BME280;60257;42.638;23.376;2024-02-23T07:18:24;94365.84;;;6.92;65.79
72308;BME280;60257;42.638;23.376;2024-02-23T07:20:24;94377.84;;;7.00;65.89
72308;BME280;60257;42.638;23.376;2024-02-23T07:22:24;94375.38;;;7.07;65.12
72308;BME280;60257;42.638;23.376;2024-02-23T07:24:25;94365.41;;;7.11;65.00
72308;BME280;60257;42.638;23.376;2024-02-23T07:26:25;94361.34;;;7.17;64.77
72308;BME280;60257;42.638;23.376;2024-02-23T07:28:28;94375.56;;;7.23;64.51
72308;BME280;60257;42.638;23.376;2024-02-23T07:30:28;94372.31;;;7.29;64.83
72308;BME280;60257;42.638;23.376;2024-02-23T07:32:28;94363.94;;;7.34;64.71
72308;BME280;60257;42.638;23.376;2024-02-23T07:34:31;94349.69;;;7.29;65.13
72308;BME280;60257;42.638;23.376;2024-02-23T07:36:31;94358.94;;;7.37;65.65
72308;BME280;60257;42.638;23.376;2024-02-23T07:38:32;94367.25;;;7.40;65.44
72308;BME280;60257;42.638;23.376;2024-02-23T07:40:32;94357.06;;;7.49;65.43
72308;BME280;60257;42.638;23.376;2024-02-23T07:42:33;94365.81;;;7.43;65.65
72308;BME280;60257;42.638;23.376;2024-02-23T07:44:35;94377.97;;;7.45;65.82
72308;BME280;60257;42.638;23.376;2024-02-23T07:46:36;94369.72;;;7.54;65.66
72308;BME280;60257;42.638;23.376;2024-02-23T07:48:37;94356.88;;;7.54;65.82
72308;BME280;60257;42.638;23.376;2024-02-23T07:50:37;94374.94;;;7.59;65.92
72308;BME280;60257;42.638;23.376;2024-02-23T07:52:38;94375.97;;;7.54;65.96
72308;BME280;60257;42.638;23.376;2024-02-23T07:54:38;94374.44;;;7.65;66.19
72308;BME280;60257;42.638;23.376;2024-02-23T07:56:39;94362.75;;;7.77;65.80
72308;BME280;60257;42.638;23.376;2024-02-23T07:58:39;94364.25;;;7.87;65.53
72308;BME280;60257;42.638;23.376;2024-02-23T08:00:40;94366.28;;;7.90;66.01
72308;BME280;60257;42.638;23.376;2024-02-23T08:02:40;94373.28;;;7.99;65.71
72308;BME280;60257;42.638;23.376;2024-02-23T08:04:41;94359.75;;;8.03;65.71
72308;BME280;60257;42.638;23.376;2024-02-23T08:06:42;94361.00;;;8.05;65.67
72308;BME280;60257;42.638;23.376;2024-02-23T08:08:46;94368.19;;;8.10;65.87
72308;BME280;60257;42.638;23.376;2024-02-23T08:10:46;94366.72;;;8.13;65.79
72308;BME280;60257;42.638;23.376;2024-02-23T08:12:47;94363.88;;;8.21;65.60
72308;BME280;60257;42.638;23.376;2024-02-23T08:14:47;94364.13;;;8.28;65.68
72308;BME280;60257;42.638;23.376;2024-02-23T08:16:49;94355.84;;;8.37;66.23
72308;BME280;60257;42.638;23.376;2024-02-23T08:18:50;94345.38;;;8.39;65.84
72308;BME280;60257;42.638;23.376;2024-02-23T08:20:51;94351.75;;;8.43;65.33
72308;BME280;60257;42.638;23.376;2024-02-23T08:22:51;94363.34;;;8.52;65.75
72308;BME280;60257;42.638;23.376;2024-02-23T08:24:52;94355.16;;;8.52;65.20
72308;BME280;60257;42.638;23.376;2024-02-23T08:26:52;94362.81;;;8.59;63.80
72308;BME280;60257;42.638;23.376;2024-02-23T08:28:53;94367.72;;;8.65;64.29
72308;BME280;60257;42.638;23.376;2024-02-23T08:30:54;94368.03;;;8.76;63.44
72308;BME280;60257;42.638;23.376;2024-02-23T08:32:54;94358.59;;;8.73;63.55
72308;BME280;60257;42.638;23.376;2024-02-23T08:34:54;94350.06;;;8.75;63.16
72308;BME280;60257;42.638;23.376;2024-02-23T08:37:00;94359.63;;;8.81;63.14
72308;BME280;60257;42.638;23.376;2024-02-23T08:39:01;94358.22;;;8.87;63.21
72308;BME280;60257;42.638;23.376;2024-02-23T08:41:03;94350.00;;;8.99;63.13
72308;BME280;60257;42.638;23.376;2024-02-23T08:43:03;94347.72;;;9.01;62.81
72308;BME280;60257;42.638;23.376;2024-02-23T08:45:04;94360.59;;;9.13;62.08
72308;BME280;60257;42.638;23.376;2024-02-23T08:47:05;94352.72;;;9.11;61.90
72308;BME280;60257;42.638;23.376;2024-02-23T08:49:05;94353.28;;;9.17;62.28
72308;BME280;60257;42.638;23.376;2024-02-23T08:51:05;94348.03;;;9.24;61.08
72308;BME280;60257;42.638;23.376;2024-02-23T08:53:06;94348.56;;;9.30;61.67
72308;BME280;60257;42.638;23.376;2024-02-23T08:55:07;94354.03;;;9.42;61.83
72308;BME280;60257;42.638;23.376;2024-02-23T08:57:08;94353.44;;;9.48;62.16
72308;BME280;60257;42.638;23.376;2024-02-23T08:59:08;94351.88;;;9.63;62.32
72308;BME280;60257;42.638;23.376;2024-02-23T09:01:09;94365.09;;;9.73;61.42
72308;BME280;60257;42.638;23.376;2024-02-23T09:03:10;94363.69;;;9.79;61.28
72308;BME280;60257;42.638;23.376;2024-02-23T09:05:10;94356.56;;;9.90;60.50
72308;BME280;60257;42.638;23.376;2024-02-23T09:07:11;94354.91;;;10.01;59.66
72308;BME280;60257;42.638;23.376;2024-02-23T09:09:12;94344.09;;;10.21;59.41
72308;BME280;60257;42.638;23.376;2024-02-23T09:11:12;94344.28;;;10.28;59.15
72308;BME280;60257;42.638;23.376;2024-02-23T09:13:14;94347.19;;;10.35;58.28
72308;BME280;60257;42.638;23.376;2024-02-23T09:15:15;94346.22;;;10.43;57.91
72308;BME280;60257;42.638;23.376;2024-02-23T09:17:15;94341.19;;;10.45;57.59
72308;BME280;60257;42.638;23.376;2024-02-23T09:19:16;94345.78;;;10.57;56.61
72308;BME280;60257;42.638;23.376;2024-02-23T09:21:17;94338.81;;;10.59;55.95
72308;BME280;60257;42.638;23.376;2024-02-23T09:23:17;94335.97;;;10.56;55.99
72308;BME280;60257;42.638;23.376;2024-02-23T09:25:18;94324.47;;;10.66;56.14
72308;BME280;60257;42.638;23.376;2024-02-23T09:27:21;94341.88;;;10.73;56.22
72308;BME280;60257;42.638;23.376;2024-02-23T09:29:22;94354.69;;;10.85;55.68
72308;BME280;60257;42.638;23.376;2024-02-23T09:31:22;94353.53;;;10.86;54.65
72308;BME280;60257;42.638;23.376;2024-02-23T09:33:22;94345.66;;;10.85;53.98
72308;BME280;60257;42.638;23.376;2024-02-23T09:35:23;94350.28;;;10.80;54.73
72308;BME280;60257;42.638;23.376;2024-02-23T09:37:23;94344.97;;;10.88;54.63
72308;BME280;60257;42.638;23.376;2024-02-23T09:39:23;94343.00;;;10.88;54.47
72308;BME280;60257;42.638;23.376;2024-02-23T09:41:26;94346.91;;;10.87;53.71
72308;BME280;60257;42.638;23.376;2024-02-23T09:43:29;94347.69;;;10.88;53.87
72308;BME280;60257;42.638;23.376;2024-02-23T09:45:33;94346.84;;;10.84;54.24
72308;BME280;60257;42.638;23.376;2024-02-23T09:47:34;94342.06;;;10.80;54.52
72308;BME280;60257;42.638;23.376;2024-02-23T09:49:38;94348.06;;;10.86;53.43
72308;BME280;60257;42.638;23.376;2024-02-23T09:51:40;94334.69;;;10.85;53.62
72308;BME280;60257;42.638;23.376;2024-02-23T09:53:41;94342.41;;;10.79;53.34
72308;BME280;60257;42.638;23.376;2024-02-23T09:55:43;94341.59;;;10.78;53.82
72308;BME280;60257;42.638;23.376;2024-02-23T09:57:47;94333.81;;;10.80;53.78
72308;BME280;60257;42.638;23.376;2024-02-23T09:59:48;94337.81;;;10.83;54.51
72308;BME280;60257;42.638;23.376;2024-02-23T10:01:51;94324.00;;;10.79;54.43
72308;BME280;60257;42.638;23.376;2024-02-23T10:03:56;94328.94;;;10.90;53.89
72308;BME280;60257;42.638;23.376;2024-02-23T10:05:57;94322.19;;;11.03;53.68
72308;BME280;60257;42.638;23.376;2024-02-23T10:07:58;94324.56;;;11.04;53.66
72308;BME280;60257;42.638;23.376;2024-02-23T10:09:58;94321.19;;;11.11;53.32
72308;BME280;60257;42.638;23.376;2024-02-23T10:11:59;94321.78;;;11.20;53.38
72308;BME280;60257;42.638;23.376;2024-02-23T10:13:59;94319.78;;;11.36;52.64
72308;BME280;60257;42.638;23.376;2024-02-23T10:16:00;94310.69;;;11.51;51.51
72308;BME280;60257;42.638;23.376;2024-02-23T10:18:00;94314.06;;;11.64;51.33
72308;BME280;60257;42.638;23.376;2024-02-23T10:20:00;94299.19;;;11.65;51.48
72308;BME280;60257;42.638;23.376;2024-02-23T10:22:04;94309.28;;;11.77;50.91
72308;BME280;60257;42.638;23.376;2024-02-23T10:24:05;94316.19;;;11.90;51.09
72308;BME280;60257;42.638;23.376;2024-02-23T10:26:06;94316.31;;;11.97;50.88
72308;BME280;60257;42.638;23.376;2024-02-23T10:28:08;94310.66;;;12.09;49.94
72308;BME280;60257;42.638;23.376;2024-02-23T10:30:10;94305.28;;;12.16;49.81
72308;BME280;60257;42.638;23.376;2024-02-23T10:32:14;94297.09;;;12.20;49.66
72308;BME280;60257;42.638;23.376;2024-02-23T10:34:18;94289.84;;;12.31;49.46
72308;BME280;60257;42.638;23.376;2024-02-23T10:36:19;94284.94;;;12.44;48.12
72308;BME280;60257;42.638;23.376;2024-02-23T10:38:23;94297.28;;;12.53;47.94
72308;BME280;60257;42.638;23.376;2024-02-23T10:40:24;94289.56;;;12.62;47.39